Time;durP1;ratioP1;P1;durP2;ratioP2;P2;SDS_P1;SDS_P2;PMS_P1;PMS_P2;Temp;Humidity;BMP_temperature;BMP_pressure;BME280_temperature;BME280_humidity;BME280_pressure;Samples;Min_cycle;Max_cycle;Signal;HPM_P1;HPM_P2
2023/06/29 00:00:08;;;;;;;1.88;1.50;;;;;;;;;;6302199;22;20156;-91
2023/06/29 00:02:36;;;;;;;1.52;1.42;;;;;;;;;;6302840;22;20156;-91
2023/06/29 00:05:05;;;;;;;1.33;1.33;;;;;;;;;;6302612;22;20163;-91
2023/06/29 00:07:33;;;;;;;1.33;1.23;;;;;;;;;;6302240;22;20176;-91
2023/06/29 00:10:01;;;;;;;1.35;1.25;;;;;;;;;;6301898;22;20172;-92
2023/06/29 00:12:29;;;;;;;1.20;1.20;;;;;;;;;;6302855;22;20160;-92
2023/06/29 00:14:56;;;;;;;1.52;1.42;;;;;;;;;;6304572;22;20163;-92
2023/06/29 00:17:24;;;;;;;1.67;1.58;;;;;;;;;;6305075;22;20187;-90
2023/06/29 00:19:52;;;;;;;1.67;1.58;;;;;;;;;;6304745;22;20160;-92
2023/06/29 00:22:21;;;;;;;1.20;1.20;;;;;;;;;;6304780;22;20152;-90
2023/06/29 00:24:56;;;;;;;1.30;1.30;;;;;;;;;;6305810;22;20173;-90
2023/06/29 00:27:24;;;;;;;1.23;1.20;;;;;;;;;;6305978;22;20160;-90
2023/06/29 00:29:52;;;;;;;1.42;1.33;;;;;;;;;;6305960;22;20169;-91
2023/06/29 00:32:19;;;;;;;1.10;1.00;;;;;;;;;;6305619;22;20168;-91
2023/06/29 00:34:47;;;;;;;1.40;1.30;;;;;;;;;;6304357;22;20167;-90
2023/06/29 00:37:15;;;;;;;1.50;1.40;;;;;;;;;;6305586;22;20196;-90
2023/06/29 00:39:44;;;;;;;1.63;1.52;;;;;;;;;;6304538;22;20167;-91
2023/06/29 00:42:12;;;;;;;2.78;1.58;;;;;;;;;;6304402;22;20195;-91
2023/06/29 00:44:39;;;;;;;2.08;1.90;;;;;;;;;;6304632;22;20172;-92
2023/06/29 00:47:07;;;;;;;1.73;1.55;;;;;;;;;;6304702;22;20180;-91
2023/06/29 00:49:35;;;;;;;2.33;2.10;;;;;;;;;;6305120;22;20173;-91
2023/06/29 00:52:03;;;;;;;2.00;1.90;;;;;;;;;;6304987;22;20171;-90
2023/06/29 00:54:31;;;;;;;1.83;1.60;;;;;;;;;;6304704;22;20184;-91
2023/06/29 00:57:00;;;;;;;3.08;1.90;;;;;;;;;;6304244;22;20156;-91
2023/06/29 00:59:27;;;;;;;1.77;1.67;;;;;;;;;;6304076;22;20205;-91
2023/06/29 01:01:55;;;;;;;2.05;1.70;;;;;;;;;;6304845;22;20172;-91
2023/06/29 01:04:25;;;;;;;2.20;1.50;;;;;;;;;;6304316;22;20160;-91
2023/06/29 01:06:59;;;;;;;1.85;1.75;;;;;;;;;;6304163;22;20179;-93
2023/06/29 01:09:27;;;;;;;2.08;1.88;;;;;;;;;;6303925;22;20177;-91
2023/06/29 01:11:54;;;;;;;1.50;1.40;;;;;;;;;;6304205;22;20232;-90
2023/06/29 01:14:25;;;;;;;1.83;1.48;;;;;;;;;;6304222;22;20168;-90
2023/06/29 01:16:53;;;;;;;1.75;1.65;;;;;;;;;;6303555;22;20168;-92
2023/06/29 01:19:26;;;;;;;1.60;1.50;;;;;;;;;;6303535;22;20195;-91
2023/06/29 01:22:00;;;;;;;1.55;1.35;;;;;;;;;;6304266;22;20151;-92
2023/06/29 01:24:28;;;;;;;1.17;1.17;;;;;;;;;;6302935;22;20159;-92
2023/06/29 01:26:57;;;;;;;1.08;1.08;;;;;;;;;;6302392;22;20164;-91
2023/06/29 01:29:25;;;;;;;1.30;1.30;;;;;;;;;;6303066;22;20189;-90
2023/06/29 01:32:00;;;;;;;1.73;1.55;;;;;;;;;;6304027;22;20172;-90
2023/06/29 01:34:28;;;;;;;1.08;1.08;;;;;;;;;;6303622;22;20465;-92
2023/06/29 01:37:01;;;;;;;1.30;1.20;;;;;;;;;;6303008;22;20188;-92
2023/06/29 01:39:32;;;;;;;1.55;1.45;;;;;;;;;;6303143;22;20223;-91
2023/06/29 01:42:01;;;;;;;1.65;1.55;;;;;;;;;;6302922;22;20157;-91
2023/06/29 01:44:29;;;;;;;2.08;1.58;;;;;;;;;;6303447;22;20159;-91
2023/06/29 01:46:57;;;;;;;1.52;1.42;;;;;;;;;;6303781;22;20160;-91
2023/06/29 01:49:24;;;;;;;1.50;1.40;;;;;;;;;;6302802;22;20192;-90
2023/06/29 01:51:52;;;;;;;1.88;1.20;;;;;;;;;;6303156;22;20183;-91
2023/06/29 01:54:19;;;;;;;1.67;1.40;;;;;;;;;;6304073;22;20156;-91
2023/06/29 01:56:47;;;;;;;1.42;1.33;;;;;;;;;;6303766;22;20172;-91
2023/06/29 01:59:16;;;;;;;1.88;1.50;;;;;;;;;;6302759;22;20192;-91
2023/06/29 02:01:43;;;;;;;2.60;1.70;;;;;;;;;;6303968;22;20160;-90
2023/06/29 02:04:11;;;;;;;1.23;1.15;;;;;;;;;;6303474;22;20180;-91
2023/06/29 02:06:39;;;;;;;1.10;1.10;;;;;;;;;;6303662;22;20162;-91
2023/06/29 02:09:06;;;;;;;1.30;1.30;;;;;;;;;;6304208;22;20188;-91
2023/06/29 02:11:34;;;;;;;2.25;2.05;;;;;;;;;;6304110;22;20164;-90
2023/06/29 02:14:01;;;;;;;1.63;1.50;;;;;;;;;;6305025;22;20176;-90
2023/06/29 02:16:30;;;;;;;1.77;1.67;;;;;;;;;;6302968;22;20160;-91
2023/06/29 02:18:58;;;;;;;3.15;1.80;;;;;;;;;;6302644;22;20197;-90
2023/06/29 02:21:25;;;;;;;1.45;1.35;;;;;;;;;;6304731;22;20180;-90
2023/06/29 02:23:53;;;;;;;1.50;1.40;;;;;;;;;;6304777;22;20149;-90
2023/06/29 02:26:21;;;;;;;1.80;1.70;;;;;;;;;;6304858;22;20156;-90
2023/06/29 02:28:49;;;;;;;1.60;1.45;;;;;;;;;;6304409;22;20184;-89
2023/06/29 02:31:17;;;;;;;2.45;2.22;;;;;;;;;;6304773;22;20188;-90
2023/06/29 02:33:46;;;;;;;1.50;1.40;;;;;;;;;;6304890;22;20160;-90
2023/06/29 02:36:15;;;;;;;1.45;1.30;;;;;;;;;;6303758;22;20173;-90
2023/06/29 02:38:43;;;;;;;2.08;1.88;;;;;;;;;;6303341;22;20244;-90
2023/06/29 02:41:10;;;;;;;1.50;1.40;;;;;;;;;;6303347;22;20169;-90
2023/06/29 02:43:38;;;;;;;2.65;2.13;;;;;;;;;;6303015;22;20167;-91
2023/06/29 02:46:05;;;;;;;1.65;1.55;;;;;;;;;;6302369;22;20173;-90
2023/06/29 02:48:33;;;;;;;1.58;1.48;;;;;;;;;;6302449;22;20176;-91
2023/06/29 02:51:02;;;;;;;1.92;1.83;;;;;;;;;;6303162;22;20168;-90
2023/06/29 02:53:29;;;;;;;1.40;1.30;;;;;;;;;;6302317;22;20156;-91
2023/06/29 02:55:57;;;;;;;2.08;1.58;;;;;;;;;;6302498;22;20184;-91
2023/06/29 02:58:24;;;;;;;1.50;1.40;;;;;;;;;;6302329;22;20193;-91
2023/06/29 03:00:52;;;;;;;1.38;1.30;;;;;;;;;;6302773;22;20187;-91
2023/06/29 03:03:20;;;;;;;1.38;1.27;;;;;;;;;;6302564;22;20169;-91
2023/06/29 03:05:47;;;;;;;1.88;1.67;;;;;;;;;;6302497;22;20230;-91
2023/06/29 03:08:16;;;;;;;1.70;1.50;;;;;;;;;;6303003;22;20183;-91
2023/06/29 03:10:44;;;;;;;2.70;1.67;;;;;;;;;;6303563;22;20164;-91
2023/06/29 03:13:11;;;;;;;1.30;1.20;;;;;;;;;;6303869;22;20156;-91
2023/06/29 03:15:39;;;;;;;1.38;1.27;;;;;;;;;;6304205;22;20187;-90
2023/06/29 03:18:07;;;;;;;1.70;1.60;;;;;;;;;;6302559;22;20176;-89
2023/06/29 03:20:34;;;;;;;1.38;1.27;;;;;;;;;;6303400;22;20206;-91
2023/06/29 03:23:02;;;;;;;1.88;1.75;;;;;;;;;;6302365;22;20181;-91
2023/06/29 03:25:31;;;;;;;1.70;1.60;;;;;;;;;;6302906;22;20175;-91
2023/06/29 03:27:58;;;;;;;1.40;1.30;;;;;;;;;;6302319;22;20204;-91
2023/06/29 03:30:26;;;;;;;2.78;1.73;;;;;;;;;;6303000;22;20323;-90
2023/06/29 03:32:55;;;;;;;1.73;1.63;;;;;;;;;;6303024;22;20183;-91
2023/06/29 03:35:22;;;;;;;1.45;1.35;;;;;;;;;;6302732;22;20176;-91
2023/06/29 03:37:50;;;;;;;1.13;1.13;;;;;;;;;;6302962;22;20200;-91
2023/06/29 03:40:17;;;;;;;1.27;1.20;;;;;;;;;;6303103;22;20199;-90
2023/06/29 03:42:46;;;;;;;1.63;1.52;;;;;;;;;;6302745;22;20156;-92
2023/06/29 03:45:14;;;;;;;1.60;1.50;;;;;;;;;;6303124;22;20156;-91
2023/06/29 03:47:41;;;;;;;1.42;1.40;;;;;;;;;;6303783;22;20192;-90
2023/06/29 03:50:10;;;;;;;1.65;1.55;;;;;;;;;;6302145;22;20210;-92
2023/06/29 03:52:37;;;;;;;1.27;1.20;;;;;;;;;;6300990;22;20168;-91
2023/06/29 03:55:07;;;;;;;2.35;1.58;;;;;;;;;;6301147;22;20169;-92
2023/06/29 03:57:34;;;;;;;1.70;1.58;;;;;;;;;;6301894;22;20188;-92
2023/06/29 04:00:04;;;;;;;1.55;1.45;;;;;;;;;;6301078;22;20199;-91
2023/06/29 04:02:32;;;;;;;1.20;1.15;;;;;;;;;;6302030;22;20175;-91
2023/06/29 04:05:05;;;;;;;1.60;1.50;;;;;;;;;;6301334;22;20161;-91
2023/06/29 04:07:33;;;;;;;1.20;1.20;;;;;;;;;;6302860;22;20196;-90
2023/06/29 04:10:01;;;;;;;1.10;1.10;;;;;;;;;;6303531;22;20172;-91
2023/06/29 04:12:28;;;;;;;1.83;1.73;;;;;;;;;;6303626;22;20152;-91
2023/06/29 04:14:56;;;;;;;2.00;1.90;;;;;;;;;;6303635;22;20152;-90
2023/06/29 04:17:25;;;;;;;1.63;1.52;;;;;;;;;;6303858;22;20171;-90
2023/06/29 04:19:52;;;;;;;1.38;1.27;;;;;;;;;;6304038;22;20188;-90
2023/06/29 04:22:20;;;;;;;1.60;1.50;;;;;;;;;;6303292;22;20160;-92
2023/06/29 04:24:47;;;;;;;1.40;1.30;;;;;;;;;;6302257;22;20183;-90
2023/06/29 04:27:16;;;;;;;1.70;1.60;;;;;;;;;;6300872;22;20179;-90
2023/06/29 04:29:43;;;;;;;1.52;1.42;;;;;;;;;;6299115;22;20416;-90
2023/06/29 04:32:11;;;;;;;1.77;1.67;;;;;;;;;;6301377;22;20179;-91
2023/06/29 04:34:40;;;;;;;1.38;1.27;;;;;;;;;;6302900;22;20168;-91
2023/06/29 04:37:08;;;;;;;1.50;1.40;;;;;;;;;;6303261;22;20177;-89
2023/06/29 04:39:35;;;;;;;1.73;1.63;;;;;;;;;;6303753;22;20188;-90
2023/06/29 04:42:05;;;;;;;1.73;1.63;;;;;;;;;;6303205;22;20366;-91
2023/06/29 04:44:33;;;;;;;1.52;1.30;;;;;;;;;;6303675;22;20173;-90
2023/06/29 04:47:01;;;;;;;1.85;1.60;;;;;;;;;;6303477;22;20172;-89
2023/06/29 04:49:31;;;;;;;2.45;2.25;;;;;;;;;;6303073;22;20181;-90
2023/06/29 04:52:01;;;;;;;1.38;1.30;;;;;;;;;;6304055;22;20157;-90
2023/06/29 04:54:30;;;;;;;1.70;1.60;;;;;;;;;;6303860;22;20156;-90
2023/06/29 04:56:59;;;;;;;1.77;1.67;;;;;;;;;;6303689;22;20161;-90
2023/06/29 04:59:29;;;;;;;1.95;1.73;;;;;;;;;;6303669;22;20185;-90
2023/06/29 05:01:56;;;;;;;3.83;2.30;;;;;;;;;;6305688;22;20172;-89
2023/06/29 05:04:24;;;;;;;1.88;1.77;;;;;;;;;;6304862;22;20330;-91
2023/06/29 05:06:58;;;;;;;2.00;1.90;;;;;;;;;;6305231;22;20163;-90
2023/06/29 05:09:27;;;;;;;2.20;1.90;;;;;;;;;;6304540;22;20240;-90
2023/06/29 05:11:55;;;;;;;2.00;1.80;;;;;;;;;;6304700;22;20164;-92
2023/06/29 05:14:24;;;;;;;1.90;1.80;;;;;;;;;;6305225;22;20392;-90
2023/06/29 05:16:51;;;;;;;1.90;1.80;;;;;;;;;;6305655;22;20152;-91
2023/06/29 05:19:19;;;;;;;1.70;1.60;;;;;;;;;;6305172;22;20180;-90
2023/06/29 05:21:47;;;;;;;1.58;1.48;;;;;;;;;;6304935;22;20184;-91
2023/06/29 05:24:14;;;;;;;1.85;1.75;;;;;;;;;;6305332;22;20183;-91
2023/06/29 05:26:43;;;;;;;1.85;1.75;;;;;;;;;;6305528;22;20157;-91
2023/06/29 05:29:11;;;;;;;1.45;1.35;;;;;;;;;;6304989;22;20211;-90
2023/06/29 05:31:38;;;;;;;2.00;1.75;;;;;;;;;;6304974;22;20160;-91
2023/06/29 05:34:06;;;;;;;3.15;1.80;;;;;;;;;;6305406;22;20172;-90
2023/06/29 05:36:33;;;;;;;1.75;1.65;;;;;;;;;;6305010;22;20164;-90
2023/06/29 05:39:02;;;;;;;1.63;1.52;;;;;;;;;;6304833;22;20184;-90
2023/06/29 05:41:29;;;;;;;1.80;1.70;;;;;;;;;;6305384;22;20180;-89
2023/06/29 05:43:59;;;;;;;1.70;1.60;;;;;;;;;;6305140;22;20148;-90
2023/06/29 05:46:27;;;;;;;2.63;2.13;;;;;;;;;;6305113;22;20145;-90
2023/06/29 05:48:54;;;;;;;1.80;1.70;;;;;;;;;;6304907;22;20172;-89
2023/06/29 05:51:22;;;;;;;2.05;1.90;;;;;;;;;;6305278;22;20152;-90
2023/06/29 05:53:50;;;;;;;2.10;1.90;;;;;;;;;;6305024;22;20157;-91
2023/06/29 05:56:17;;;;;;;3.50;2.15;;;;;;;;;;6304907;22;20160;-91
2023/06/29 05:58:46;;;;;;;3.15;2.20;;;;;;;;;;6304714;22;20180;-92
2023/06/29 06:01:15;;;;;;;3.53;2.15;;;;;;;;;;6304877;22;20211;-91
2023/06/29 06:03:43;;;;;;;2.35;1.75;;;;;;;;;;6304744;22;20164;-91
2023/06/29 06:06:11;;;;;;;2.22;2.05;;;;;;;;;;6305045;22;20149;-91
2023/06/29 06:08:38;;;;;;;2.08;1.98;;;;;;;;;;6304555;22;20180;-90
2023/06/29 06:11:06;;;;;;;2.13;1.92;;;;;;;;;;6304736;22;20187;-91
2023/06/29 06:13:34;;;;;;;2.05;1.60;;;;;;;;;;6305033;22;20211;-92
2023/06/29 06:16:01;;;;;;;3.25;2.08;;;;;;;;;;6304171;22;20176;-90
2023/06/29 06:18:31;;;;;;;2.67;2.47;;;;;;;;;;6304395;22;20171;-91
2023/06/29 06:20:58;;;;;;;1.98;1.85;;;;;;;;;;6304425;22;20172;-91
2023/06/29 06:23:26;;;;;;;1.92;1.83;;;;;;;;;;6304953;22;20168;-91
2023/06/29 06:25:55;;;;;;;2.38;2.20;;;;;;;;;;6304650;22;20145;-90
2023/06/29 06:28:22;;;;;;;2.17;2.00;;;;;;;;;;6304485;22;20198;-91
2023/06/29 06:30:50;;;;;;;2.95;2.03;;;;;;;;;;6304954;22;20145;-90
2023/06/29 06:33:18;;;;;;;1.70;1.60;;;;;;;;;;6304542;22;20168;-92
2023/06/29 06:35:47;;;;;;;1.60;1.50;;;;;;;;;;6304095;22;20140;-90
2023/06/29 06:38:15;;;;;;;2.42;2.20;;;;;;;;;;6304191;22;20172;-92
2023/06/29 06:40:42;;;;;;;3.92;2.13;;;;;;;;;;6304492;22;20155;-92
2023/06/29 06:43:10;;;;;;;2.75;2.00;;;;;;;;;;6304402;22;20157;-91
2023/06/29 06:45:37;;;;;;;3.08;2.50;;;;;;;;;;6304749;22;20164;-91
2023/06/29 06:48:05;;;;;;;1.90;1.80;;;;;;;;;;6304447;22;20167;-91
2023/06/29 06:50:33;;;;;;;1.80;1.65;;;;;;;;;;6304573;22;20155;-91
2023/06/29 06:53:02;;;;;;;2.28;2.03;;;;;;;;;;6304542;22;20160;-92
2023/06/29 06:55:30;;;;;;;2.08;1.88;;;;;;;;;;6304212;22;20168;-91
2023/06/29 06:57:57;;;;;;;2.47;2.28;;;;;;;;;;6303179;22;20245;-89
2023/06/29 07:00:26;;;;;;;2.92;2.60;;;;;;;;;;6304352;22;20168;-90
2023/06/29 07:02:54;;;;;;;2.15;1.95;;;;;;;;;;6304432;22;20175;-90
2023/06/29 07:05:21;;;;;;;3.47;2.08;;;;;;;;;;6304425;22;20167;-91
2023/06/29 07:07:51;;;;;;;2.70;2.50;;;;;;;;;;6303985;22;20180;-90
2023/06/29 07:10:20;;;;;;;3.35;2.10;;;;;;;;;;6304561;22;20179;-90
2023/06/29 07:12:47;;;;;;;2.40;1.75;;;;;;;;;;6304365;22;20148;-90
2023/06/29 07:15:16;;;;;;;1.90;1.73;;;;;;;;;;6304382;22;20157;-91
2023/06/29 07:17:44;;;;;;;2.17;1.98;;;;;;;;;;6304075;22;20199;-93
2023/06/29 07:20:14;;;;;;;2.00;1.80;;;;;;;;;;6304077;22;20171;-91
2023/06/29 07:22:41;;;;;;;3.95;1.80;;;;;;;;;;6303941;22;20216;-90
2023/06/29 07:25:11;;;;;;;2.33;1.98;;;;;;;;;;6304191;22;20163;-90
2023/06/29 07:27:40;;;;;;;1.70;1.60;;;;;;;;;;6304115;22;20176;-91
2023/06/29 07:30:09;;;;;;;3.17;1.83;;;;;;;;;;6304169;22;20164;-92
2023/06/29 07:32:36;;;;;;;2.55;1.75;;;;;;;;;;6304278;22;20160;-91
2023/06/29 07:35:05;;;;;;;1.80;1.70;;;;;;;;;;6304022;22;20152;-90
2023/06/29 07:37:33;;;;;;;2.50;2.30;;;;;;;;;;6303967;22;20202;-91
2023/06/29 07:40:04;;;;;;;1.85;1.75;;;;;;;;;;6304122;22;20148;-92
2023/06/29 07:42:31;;;;;;;1.42;1.33;;;;;;;;;;6303985;22;20169;-92
2023/06/29 07:45:00;;;;;;;1.98;1.55;;;;;;;;;;6304435;22;20144;-93
2023/06/29 07:47:28;;;;;;;2.10;2.00;;;;;;;;;;6303775;22;20168;-91
2023/06/29 07:49:55;;;;;;;1.65;1.55;;;;;;;;;;6304268;22;20156;-91
2023/06/29 07:52:24;;;;;;;2.28;2.03;;;;;;;;;;6304183;22;20141;-91
2023/06/29 07:54:52;;;;;;;2.00;1.80;;;;;;;;;;6304038;22;20198;-91
2023/06/29 07:57:19;;;;;;;1.77;1.67;;;;;;;;;;6303650;22;20159;-92
2023/06/29 07:59:47;;;;;;;2.30;2.10;;;;;;;;;;6304060;22;20163;-90
2023/06/29 08:02:16;;;;;;;1.80;1.70;;;;;;;;;;6303935;22;20168;-91
2023/06/29 08:04:44;;;;;;;2.75;2.15;;;;;;;;;;6303751;22;20159;-91
2023/06/29 08:07:12;;;;;;;2.38;2.15;;;;;;;;;;6303631;22;20172;-92
2023/06/29 08:09:40;;;;;;;2.22;2.10;;;;;;;;;;6303954;22;20155;-92
2023/06/29 08:12:09;;;;;;;3.75;1.98;;;;;;;;;;6303340;22;20152;-90
2023/06/29 08:14:38;;;;;;;2.03;1.83;;;;;;;;;;6303886;22;20153;-91
2023/06/29 08:17:06;;;;;;;2.40;2.28;;;;;;;;;;6303956;22;20153;-90
2023/06/29 08:19:35;;;;;;;2.80;2.30;;;;;;;;;;6303797;22;20159;-90
2023/06/29 08:22:03;;;;;;;2.33;2.13;;;;;;;;;;6303696;22;20183;-90
2023/06/29 08:24:30;;;;;;;2.42;2.22;;;;;;;;;;6304005;22;20172;-91
2023/06/29 08:27:01;;;;;;;2.47;2.20;;;;;;;;;;6303838;22;20152;-90
2023/06/29 08:29:28;;;;;;;2.40;2.20;;;;;;;;;;6303729;22;20172;-92
2023/06/29 08:31:56;;;;;;;1.90;1.80;;;;;;;;;;6304003;22;20152;-90
2023/06/29 08:34:24;;;;;;;2.40;2.20;;;;;;;;;;6304697;22;20160;-90
2023/06/29 08:36:53;;;;;;;7.45;2.15;;;;;;;;;;6305254;22;20169;-91
2023/06/29 08:39:20;;;;;;;2.10;1.90;;;;;;;;;;6305557;22;20165;-90
2023/06/29 08:41:48;;;;;;;2.58;1.90;;;;;;;;;;6305330;22;20144;-91
2023/06/29 08:44:16;;;;;;;1.90;1.80;;;;;;;;;;6305571;22;20148;-91
2023/06/29 08:46:44;;;;;;;2.88;2.40;;;;;;;;;;6304747;22;20168;-91
2023/06/29 08:49:13;;;;;;;2.72;2.10;;;;;;;;;;6305246;22;20184;-90
2023/06/29 08:51:44;;;;;;;2.47;2.28;;;;;;;;;;6305421;22;20148;-91
2023/06/29 08:54:16;;;;;;;2.20;2.10;;;;;;;;;;6304862;22;20153;-92
2023/06/29 08:56:44;;;;;;;2.53;2.33;;;;;;;;;;6305563;22;20185;-91
2023/06/29 08:59:12;;;;;;;2.70;2.50;;;;;;;;;;6305303;22;20179;-91
2023/06/29 09:01:39;;;;;;;4.30;3.13;;;;;;;;;;6305092;22;20169;-92
2023/06/29 09:04:07;;;;;;;3.70;2.72;;;;;;;;;;6305181;22;20176;-90
2023/06/29 09:06:35;;;;;;;3.78;3.33;;;;;;;;;;6305559;22;20173;-91
2023/06/29 09:09:03;;;;;;;2.70;2.50;;;;;;;;;;6304984;22;20216;-91
2023/06/29 09:11:35;;;;;;;2.67;2.47;;;;;;;;;;6304969;22;20157;-92
2023/06/29 09:14:05;;;;;;;2.72;2.53;;;;;;;;;;6305386;22;20155;-92
2023/06/29 09:16:34;;;;;;;2.65;2.45;;;;;;;;;;6305351;22;20174;-93
2023/06/29 09:19:01;;;;;;;2.78;2.47;;;;;;;;;;6304949;22;20212;-92
2023/06/29 09:21:29;;;;;;;3.40;3.10;;;;;;;;;;6305267;22;20164;-93
2023/06/29 09:23:59;;;;;;;3.15;2.85;;;;;;;;;;6305206;22;20195;-92
2023/06/29 09:26:28;;;;;;;3.10;2.90;;;;;;;;;;6305241;22;20165;-94
2023/06/29 09:29:00;;;;;;;2.80;2.60;;;;;;;;;;6304945;22;20216;-92
2023/06/29 09:31:32;;;;;;;2.65;2.45;;;;;;;;;;6305397;22;20164;-95
2023/06/29 09:34:18;;;;;;;2.30;2.10;;;;;;;;;;6305192;22;20157;-93
2023/06/29 09:36:46;;;;;;;4.38;2.80;;;;;;;;;;6304936;22;20152;-94
2023/06/29 09:39:14;;;;;;;3.35;2.83;;;;;;;;;;6305080;22;20176;-92
2023/06/29 09:41:49;;;;;;;3.05;2.78;;;;;;;;;;6305296;22;20153;-92
2023/06/29 09:44:20;;;;;;;3.70;3.42;;;;;;;;;;6305073;22;20196;-92
2023/06/29 09:46:47;;;;;;;4.82;3.72;;;;;;;;;;6304397;22;20152;-92
2023/06/29 09:49:15;;;;;;;3.83;3.22;;;;;;;;;;6305007;22;20180;-92
2023/06/29 09:51:43;;;;;;;2.60;2.40;;;;;;;;;;6305046;22;20159;-93
2023/06/29 09:54:13;;;;;;;3.08;2.88;;;;;;;;;;6304973;22;20172;-94
2023/06/29 09:56:41;;;;;;;2.65;2.40;;;;;;;;;;6305126;22;20160;-92
2023/06/29 09:59:11;;;;;;;3.42;3.15;;;;;;;;;;6304817;22;20216;-93
2023/06/29 10:01:41;;;;;;;3.35;3.15;;;;;;;;;;6305070;22;20156;-93
2023/06/29 10:04:08;;;;;;;13.40;5.50;;;;;;;;;;6304795;22;20216;-93
2023/06/29 10:06:42;;;;;;;3.72;2.97;;;;;;;;;;6304976;22;20144;-93
2023/06/29 10:09:11;;;;;;;3.95;3.00;;;;;;;;;;6304533;22;20176;-93
2023/06/29 10:11:39;;;;;;;2.60;2.40;;;;;;;;;;6304795;22;20144;-93
2023/06/29 10:14:08;;;;;;;4.50;2.60;;;;;;;;;;6305007;22;20172;-93
2023/06/29 10:16:52;;;;;;;4.25;3.63;;;;;;;;;;6304722;22;20192;-91
2023/06/29 10:19:22;;;;;;;4.18;3.80;;;;;;;;;;6304626;22;20164;-92
2023/06/29 10:21:56;;;;;;;5.15;3.58;;;;;;;;;;6304511;22;20152;-94
2023/06/29 10:24:27;;;;;;;5.13;3.50;;;;;;;;;;6304845;22;20176;-93
2023/06/29 10:26:55;;;;;;;3.70;3.40;;;;;;;;;;6304743;22;20153;-93
2023/06/29 10:29:23;;;;;;;3.17;2.78;;;;;;;;;;6304526;22;20198;-93
2023/06/29 10:31:56;;;;;;;2.85;2.35;;;;;;;;;;6304868;22;20153;-94
2023/06/29 10:34:26;;;;;;;2.67;2.15;;;;;;;;;;6304551;22;20148;-93
2023/06/29 10:36:59;;;;;;;2.50;2.30;;;;;;;;;;6304284;22;20152;-93
2023/06/29 10:39:44;;;;;;;2.85;2.65;;;;;;;;;;6304357;22;20185;-92
2023/06/29 10:42:13;;;;;;;3.35;3.05;;;;;;;;;;6304559;22;20156;-93
2023/06/29 10:44:41;;;;;;;3.65;3.00;;;;;;;;;;6304383;22;20194;-92
2023/06/29 10:47:27;;;;;;;4.18;3.78;;;;;;;;;;6304067;22;20145;-92
2023/06/29 10:50:21;;;;;;;5.50;4.15;;;;;;;;;;6304521;22;20155;-94
2023/06/29 10:52:50;;;;;;;4.10;3.80;;;;;;;;;;6304415;22;20200;-94
2023/06/29 10:55:19;;;;;;;4.30;3.92;;;;;;;;;;6304344;22;20152;-93
2023/06/29 10:57:47;;;;;;;3.42;3.13;;;;;;;;;;6304105;22;20168;-94
2023/06/29 11:00:16;;;;;;;3.58;3.28;;;;;;;;;;6304530;22;20164;-93
2023/06/29 11:02:46;;;;;;;3.83;3.45;;;;;;;;;;6304449;22;20145;-93
2023/06/29 11:05:14;;;;;;;3.83;3.53;;;;;;;;;;6304418;22;20230;-93
2023/06/29 11:07:42;;;;;;;3.97;3.58;;;;;;;;;;6304018;22;20224;-92
2023/06/29 11:10:11;;;;;;;3.83;3.50;;;;;;;;;;6304291;22;20153;-93
2023/06/29 11:12:39;;;;;;;3.55;3.25;;;;;;;;;;6304305;22;20156;-92
2023/06/29 11:15:12;;;;;;;5.28;3.60;;;;;;;;;;6304140;22;20156;-93
2023/06/29 11:17:41;;;;;;;3.08;2.88;;;;;;;;;;6304094;22;20164;-93
2023/06/29 11:20:13;;;;;;;3.20;2.90;;;;;;;;;;6304227;22;20251;-92
2023/06/29 11:22:41;;;;;;;2.70;2.50;;;;;;;;;;6304219;22;20145;-92
2023/06/29 11:25:11;;;;;;;3.30;3.00;;;;;;;;;;6304221;22;20184;-94
2023/06/29 11:27:38;;;;;;;2.90;2.70;;;;;;;;;;6303872;22;20180;-93
2023/06/29 11:30:09;;;;;;;3.63;3.33;;;;;;;;;;6304029;22;20145;-93
2023/06/29 11:32:37;;;;;;;3.70;3.20;;;;;;;;;;6304247;22;20168;-93
2023/06/29 11:35:09;;;;;;;2.90;2.70;;;;;;;;;;6304192;22;20148;-93
2023/06/29 11:37:38;;;;;;;2.42;2.22;;;;;;;;;;6303674;22;20223;-93
2023/06/29 11:40:16;;;;;;;2.53;2.33;;;;;;;;;;6304164;22;20144;-93
2023/06/29 11:42:44;;;;;;;2.88;2.67;;;;;;;;;;6304208;22;20156;-94
2023/06/29 11:45:15;;;;;;;3.92;3.63;;;;;;;;;;6277645;22;20207;-92
2023/06/29 11:47:44;;;;;;;4.38;2.78;;;;;;;;;;6303892;22;20297;-94
2023/06/29 11:50:13;;;;;;;2.60;2.40;;;;;;;;;;6304137;22;20159;-93
2023/06/29 11:52:42;;;;;;;4.68;2.80;;;;;;;;;;6304178;22;20148;-93
2023/06/29 11:55:15;;;;;;;3.30;2.72;;;;;;;;;;6303940;22;20222;-94
2023/06/29 11:57:44;;;;;;;3.50;3.20;;;;;;;;;;6303293;22;20184;-93
2023/06/29 12:00:33;;;;;;;2.95;2.70;;;;;;;;;;6304207;22;20167;-93
2023/06/29 12:03:09;;;;;;;2.90;2.65;;;;;;;;;;6304086;22;20145;-94
2023/06/29 12:05:42;;;;;;;2.20;2.00;;;;;;;;;;6303883;22;20171;-94
2023/06/29 12:08:10;;;;;;;3.55;3.25;;;;;;;;;;6303735;22;20168;-93
2023/06/29 12:10:40;;;;;;;3.38;3.08;;;;;;;;;;6306224;22;20192;-93
2023/06/29 12:13:10;;;;;;;3.03;2.83;;;;;;;;;;6306079;22;20168;-95
2023/06/29 12:15:38;;;;;;;3.35;3.15;;;;;;;;;;6305973;22;20388;-93
2023/06/29 12:18:12;;;;;;;3.17;2.90;;;;;;;;;;6305852;22;20185;-94
2023/06/29 12:20:43;;;;;;;2.95;2.75;;;;;;;;;;6305809;22;20173;-94
2023/06/29 12:23:15;;;;;;;2.95;2.75;;;;;;;;;;6305775;22;20160;-93
2023/06/29 12:25:47;;;;;;;3.83;2.78;;;;;;;;;;6305937;22;20172;-93
2023/06/29 12:28:15;;;;;;;2.53;2.33;;;;;;;;;;6305746;22;20169;-93
2023/06/29 12:30:43;;;;;;;2.70;2.50;;;;;;;;;;6305530;22;20152;-93
2023/06/29 12:33:14;;;;;;;3.47;3.13;;;;;;;;;;6305002;22;20148;-91
2023/06/29 12:35:43;;;;;;;2.42;2.28;;;;;;;;;;6306005;22;20153;-93
2023/06/29 12:38:11;;;;;;;3.08;2.80;;;;;;;;;;6305467;22;20183;-92
2023/06/29 12:40:39;;;;;;;3.25;3.05;;;;;;;;;;6305596;22;20163;-94
2023/06/29 12:43:06;;;;;;;4.28;3.88;;;;;;;;;;6306014;22;20431;-93
2023/06/29 12:45:35;;;;;;;2.50;2.30;;;;;;;;;;6304638;22;20168;-92
2023/06/29 12:48:04;;;;;;;2.97;2.75;;;;;;;;;;6305244;22;20195;-93
2023/06/29 12:50:31;;;;;;;3.33;3.13;;;;;;;;;;6305506;22;20205;-94
2023/06/29 12:53:00;;;;;;;3.28;3.00;;;;;;;;;;6305595;22;20183;-92
2023/06/29 12:55:28;;;;;;;2.85;2.65;;;;;;;;;;6305627;22;20163;-94
2023/06/29 12:57:56;;;;;;;2.75;2.55;;;;;;;;;;6305216;22;20200;-92
2023/06/29 13:00:24;;;;;;;3.30;3.00;;;;;;;;;;6305774;22;20153;-92
2023/06/29 13:02:54;;;;;;;3.25;2.95;;;;;;;;;;6305564;22;20149;-93
2023/06/29 13:05:22;;;;;;;3.47;3.17;;;;;;;;;;6305392;22;20179;-94
2023/06/29 13:07:49;;;;;;;3.35;3.05;;;;;;;;;;6305438;22;20169;-94
2023/06/29 13:10:19;;;;;;;3.22;2.92;;;;;;;;;;6305325;22;20164;-94
2023/06/29 13:12:46;;;;;;;2.75;2.50;;;;;;;;;;6305505;22;20156;-93
2023/06/29 13:15:14;;;;;;;2.78;2.55;;;;;;;;;;6305541;22;20140;-93
2023/06/29 13:17:42;;;;;;;3.28;2.97;;;;;;;;;;6305304;22;20168;-94
2023/06/29 13:20:14;;;;;;;3.00;2.80;;;;;;;;;;6304560;22;20152;-94
2023/06/29 13:22:42;;;;;;;4.03;2.63;;;;;;;;;;6305315;22;20169;-92
2023/06/29 13:25:10;;;;;;;3.45;3.20;;;;;;;;;;6305451;22;20168;-92
2023/06/29 13:27:41;;;;;;;3.63;3.17;;;;;;;;;;6305180;22;20168;-93
2023/06/29 13:30:10;;;;;;;3.33;3.03;;;;;;;;;;6305513;22;20149;-93
2023/06/29 13:32:38;;;;;;;4.50;3.92;;;;;;;;;;6305294;22;20164;-93
2023/06/29 13:35:06;;;;;;;4.18;3.80;;;;;;;;;;6305287;22;20167;-95
2023/06/29 13:37:34;;;;;;;5.55;4.80;;;;;;;;;;6304270;22;20183;-94
2023/06/29 13:40:02;;;;;;;5.97;5.13;;;;;;;;;;6303928;22;20160;-94
2023/06/29 13:42:30;;;;;;;5.53;5.03;;;;;;;;;;6304820;22;20192;-93
2023/06/29 13:44:59;;;;;;;6.28;5.68;;;;;;;;;;6304732;22;20172;-92
2023/06/29 13:47:26;;;;;;;5.72;5.22;;;;;;;;;;6304795;22;20151;-92
2023/06/29 13:49:54;;;;;;;5.53;5.03;;;;;;;;;;6305216;22;20148;-92
2023/06/29 13:52:22;;;;;;;5.28;4.78;;;;;;;;;;6304318;22;20164;-92
2023/06/29 13:54:49;;;;;;;6.03;5.43;;;;;;;;;;6303844;22;20148;-93
2023/06/29 13:57:17;;;;;;;6.10;5.50;;;;;;;;;;6304156;22;20149;-91
2023/06/29 13:59:46;;;;;;;6.72;4.78;;;;;;;;;;6303696;22;20191;-92
2023/06/29 14:02:16;;;;;;;6.65;6.05;;;;;;;;;;6304074;22;20152;-92
2023/06/29 14:04:43;;;;;;;7.18;6.50;;;;;;;;;;6304660;22;20149;-93
2023/06/29 14:07:12;;;;;;;7.97;5.80;;;;;;;;;;6304336;22;20145;-93
2023/06/29 14:09:39;;;;;;;6.40;5.78;;;;;;;;;;6305065;22;20148;-92
2023/06/29 14:12:09;;;;;;;5.85;5.35;;;;;;;;;;6304902;22;20172;-92
2023/06/29 14:14:36;;;;;;;6.25;5.65;;;;;;;;;;6305094;22;20165;-92
2023/06/29 14:17:04;;;;;;;10.82;7.40;;;;;;;;;;6304611;22;20156;-94
2023/06/29 14:19:33;;;;;;;6.72;5.80;;;;;;;;;;6304501;22;20200;-91
2023/06/29 14:22:02;;;;;;;5.03;4.55;;;;;;;;;;6304731;22;20156;-92
2023/06/29 14:24:30;;;;;;;5.43;4.70;;;;;;;;;;6304832;22;20152;-92
2023/06/29 14:26:57;;;;;;;4.90;4.40;;;;;;;;;;6304628;22;20201;-91
2023/06/29 14:29:25;;;;;;;5.57;5.07;;;;;;;;;;6304696;22;20217;-92
2023/06/29 14:31:53;;;;;;;6.35;5.18;;;;;;;;;;6304619;22;20145;-93
2023/06/29 14:34:20;;;;;;;4.63;4.22;;;;;;;;;;6304653;22;20156;-92
2023/06/29 14:36:49;;;;;;;6.53;5.10;;;;;;;;;;6304461;22;20153;-93
2023/06/29 14:39:17;;;;;;;5.50;5.00;;;;;;;;;;6303343;22;20183;-92
2023/06/29 14:41:55;;;;;;;5.05;4.57;;;;;;;;;;6303577;22;20155;-93
2023/06/29 14:44:23;;;;;;;5.60;5.10;;;;;;;;;;6304678;22;20189;-89
2023/06/29 14:46:52;;;;;;;4.65;4.25;;;;;;;;;;6304429;22;20179;-92
2023/06/29 14:49:20;;;;;;;4.75;4.28;;;;;;;;;;6304365;22;20169;-91
2023/06/29 14:51:49;;;;;;;4.97;4.55;;;;;;;;;;6304543;22;20148;-90